sensor_id;sensor_type;location;lat;lon;timestamp;P1;durP1;ratioP1;P2;durP2;ratioP2
18931;SDS011;9598;50.954;3.112;2024-01-15T00:04:05;4.43;;;3.15;;
18931;SDS011;9598;50.954;3.112;2024-01-15T00:09:08;4.95;;;3.38;;
18931;SDS011;9598;50.954;3.112;2024-01-15T00:14:10;3.17;;;2.25;;
18931;SDS011;9598;50.954;3.112;2024-01-15T00:19:14;4.35;;;2.33;;
18931;SDS011;9598;50.954;3.112;2024-01-15T00:24:18;6.40;;;2.70;;
18931;SDS011;9598;50.954;3.112;2024-01-15T00:29:20;3.88;;;2.22;;
18931;SDS011;9598;50.954;3.112;2024-01-15T00:34:22;3.05;;;2.08;;
18931;SDS011;9598;50.954;3.112;2024-01-15T00:39:26;2.75;;;1.83;;
18931;SDS011;9598;50.954;3.112;2024-01-15T00:44:28;3.22;;;1.80;;
18931;SDS011;9598;50.954;3.112;2024-01-15T00:49:30;3.13;;;1.73;;
18931;SDS011;9598;50.954;3.112;2024-01-15T00:54:33;4.20;;;1.50;;
18931;SDS011;9598;50.954;3.112;2024-01-15T00:59:36;2.15;;;1.55;;
18931;SDS011;9598;50.954;3.112;2024-01-15T01:04:40;4.60;;;1.70;;
18931;SDS011;9598;50.954;3.112;2024-01-15T01:09:43;3.42;;;1.60;;
18931;SDS011;9598;50.954;3.112;2024-01-15T01:14:45;2.47;;;1.90;;
18931;SDS011;9598;50.954;3.112;2024-01-15T01:19:49;3.38;;;2.05;;
18931;SDS011;9598;50.954;3.112;2024-01-15T01:24:52;3.67;;;1.83;;
18931;SDS011;9598;50.954;3.112;2024-01-15T01:29:54;2.72;;;2.20;;
18931;SDS011;9598;50.954;3.112;2024-01-15T01:34:56;7.40;;;2.10;;
18931;SDS011;9598;50.954;3.112;2024-01-15T01:40:00;5.13;;;1.92;;
18931;SDS011;9598;50.954;3.112;2024-01-15T01:45:02;4.35;;;2.45;;
18931;SDS011;9598;50.954;3.112;2024-01-15T01:50:05;2.85;;;1.90;;
18931;SDS011;9598;50.954;3.112;2024-01-15T01:55:09;5.75;;;2.25;;
18931;SDS011;9598;50.954;3.112;2024-01-15T02:00:14;2.20;;;2.00;;
18931;SDS011;9598;50.954;3.112;2024-01-15T02:05:18;3.53;;;2.28;;
18931;SDS011;9598;50.954;3.112;2024-01-15T02:10:23;5.63;;;2.30;;
18931;SDS011;9598;50.954;3.112;2024-01-15T02:15:25;3.35;;;2.30;;
18931;SDS011;9598;50.954;3.112;2024-01-15T02:20:27;8.30;;;3.00;;
18931;SDS011;9598;50.954;3.112;2024-01-15T02:25:31;3.50;;;2.65;;
18931;SDS011;9598;50.954;3.112;2024-01-15T02:30:34;4.57;;;2.50;;
18931;SDS011;9598;50.954;3.112;2024-01-15T02:35:38;3.55;;;2.95;;
18931;SDS011;9598;50.954;3.112;2024-01-15T02:40:41;3.30;;;2.70;;
18931;SDS011;9598;50.954;3.112;2024-01-15T02:45:44;5.25;;;2.42;;
18931;SDS011;9598;50.954;3.112;2024-01-15T02:50:47;2.45;;;2.25;;
18931;SDS011;9598;50.954;3.112;2024-01-15T02:55:50;4.03;;;2.65;;
18931;SDS011;9598;50.954;3.112;2024-01-15T03:00:52;6.22;;;3.15;;
18931;SDS011;9598;50.954;3.112;2024-01-15T03:05:55;5.45;;;2.78;;
18931;SDS011;9598;50.954;3.112;2024-01-15T03:10:58;4.68;;;2.40;;
18931;SDS011;9598;50.954;3.112;2024-01-15T03:16:00;3.40;;;2.55;;
18931;SDS011;9598;50.954;3.112;2024-01-15T03:21:03;6.85;;;2.55;;
18931;SDS011;9598;50.954;3.112;2024-01-15T03:26:08;2.75;;;2.38;;
18931;SDS011;9598;50.954;3.112;2024-01-15T03:31:10;2.70;;;2.10;;
18931;SDS011;9598;50.954;3.112;2024-01-15T03:36:12;3.08;;;2.47;;
18931;SDS011;9598;50.954;3.112;2024-01-15T03:41:15;4.43;;;2.50;;
18931;SDS011;9598;50.954;3.112;2024-01-15T03:46:18;4.85;;;2.13;;
18931;SDS011;9598;50.954;3.112;2024-01-15T03:51:20;8.65;;;3.00;;
18931;SDS011;9598;50.954;3.112;2024-01-15T03:56:23;4.57;;;2.10;;
18931;SDS011;9598;50.954;3.112;2024-01-15T04:01:25;3.95;;;2.60;;
18931;SDS011;9598;50.954;3.112;2024-01-15T04:06:27;3.40;;;2.10;;
18931;SDS011;9598;50.954;3.112;2024-01-15T04:11:31;6.78;;;1.95;;
18931;SDS011;9598;50.954;3.112;2024-01-15T04:16:33;6.47;;;2.75;;
18931;SDS011;9598;50.954;3.112;2024-01-15T04:21:35;5.68;;;2.50;;
18931;SDS011;9598;50.954;3.112;2024-01-15T04:26:38;2.80;;;1.90;;
18931;SDS011;9598;50.954;3.112;2024-01-15T04:31:40;2.45;;;2.05;;
18931;SDS011;9598;50.954;3.112;2024-01-15T04:36:42;6.95;;;2.30;;
18931;SDS011;9598;50.954;3.112;2024-01-15T04:41:45;4.18;;;2.00;;
18931;SDS011;9598;50.954;3.112;2024-01-15T04:46:47;4.85;;;2.50;;
18931;SDS011;9598;50.954;3.112;2024-01-15T04:51:50;4.60;;;2.40;;
18931;SDS011;9598;50.954;3.112;2024-01-15T04:56:53;5.43;;;2.20;;
18931;SDS011;9598;50.954;3.112;2024-01-15T05:01:56;5.43;;;2.58;;
18931;SDS011;9598;50.954;3.112;2024-01-15T05:06:58;6.65;;;4.20;;
18931;SDS011;9598;50.954;3.112;2024-01-15T05:12:01;4.85;;;2.80;;
18931;SDS011;9598;50.954;3.112;2024-01-15T05:17:04;6.57;;;1.83;;
18931;SDS011;9598;50.954;3.112;2024-01-15T05:22:06;8.55;;;2.10;;
18931;SDS011;9598;50.954;3.112;2024-01-15T05:27:09;3.13;;;1.58;;
18931;SDS011;9598;50.954;3.112;2024-01-15T05:32:11;3.95;;;1.38;;
18931;SDS011;9598;50.954;3.112;2024-01-15T05:37:13;3.85;;;2.05;;
18931;SDS011;9598;50.954;3.112;2024-01-15T05:42:17;3.33;;;1.83;;
18931;SDS011;9598;50.954;3.112;2024-01-15T05:47:19;3.38;;;1.83;;
18931;SDS011;9598;50.954;3.112;2024-01-15T05:52:21;5.00;;;1.40;;
18931;SDS011;9598;50.954;3.112;2024-01-15T05:57:25;5.40;;;1.65;;
18931;SDS011;9598;50.954;3.112;2024-01-15T06:02:27;5.35;;;1.65;;
18931;SDS011;9598;50.954;3.112;2024-01-15T06:07:29;5.88;;;2.20;;
18931;SDS011;9598;50.954;3.112;2024-01-15T06:12:32;4.95;;;1.48;;
18931;SDS011;9598;50.954;3.112;2024-01-15T06:17:34;2.72;;;1.75;;
18931;SDS011;9598;50.954;3.112;2024-01-15T06:22:37;4.32;;;1.55;;
18931;SDS011;9598;50.954;3.112;2024-01-15T06:27:40;4.18;;;1.60;;
18931;SDS011;9598;50.954;3.112;2024-01-15T06:32:43;5.97;;;1.55;;
18931;SDS011;9598;50.954;3.112;2024-01-15T06:37:45;6.47;;;2.20;;
18931;SDS011;9598;50.954;3.112;2024-01-15T06:42:48;3.20;;;1.50;;
18931;SDS011;9598;50.954;3.112;2024-01-15T06:47:50;2.88;;;1.48;;
18931;SDS011;9598;50.954;3.112;2024-01-15T06:52:52;7.93;;;1.48;;
18931;SDS011;9598;50.954;3.112;2024-01-15T06:57:55;2.45;;;1.75;;
18931;SDS011;9598;50.954;3.112;2024-01-15T07:02:57;1.90;;;1.30;;
18931;SDS011;9598;50.954;3.112;2024-01-15T07:08:00;4.10;;;1.75;;
18931;SDS011;9598;50.954;3.112;2024-01-15T07:13:03;4.63;;;1.98;;
18931;SDS011;9598;50.954;3.112;2024-01-15T07:18:06;3.45;;;1.42;;
18931;SDS011;9598;50.954;3.112;2024-01-15T07:23:08;3.83;;;1.77;;
18931;SDS011;9598;50.954;3.112;2024-01-15T07:28:11;5.85;;;1.70;;
18931;SDS011;9598;50.954;3.112;2024-01-15T07:33:13;5.65;;;1.77;;
18931;SDS011;9598;50.954;3.112;2024-01-15T07:38:15;3.60;;;1.58;;
18931;SDS011;9598;50.954;3.112;2024-01-15T07:43:19;5.00;;;1.98;;
18931;SDS011;9598;50.954;3.112;2024-01-15T07:48:21;3.53;;;1.48;;
18931;SDS011;9598;50.954;3.112;2024-01-15T07:53:23;5.55;;;1.73;;
18931;SDS011;9598;50.954;3.112;2024-01-15T07:58:27;5.10;;;1.90;;
18931;SDS011;9598;50.954;3.112;2024-01-15T08:03:29;5.07;;;1.85;;
18931;SDS011;9598;50.954;3.112;2024-01-15T08:08:31;5.22;;;1.73;;
18931;SDS011;9598;50.954;3.112;2024-01-15T08:13:35;4.07;;;1.85;;
18931;SDS011;9598;50.954;3.112;2024-01-15T08:18:37;4.95;;;1.70;;
18931;SDS011;9598;50.954;3.112;2024-01-15T08:23:39;5.80;;;1.80;;
18931;SDS011;9598;50.954;3.112;2024-01-15T08:28:43;4.13;;;1.52;;
18931;SDS011;9598;50.954;3.112;2024-01-15T08:33:45;6.07;;;1.85;;
18931;SDS011;9598;50.954;3.112;2024-01-15T08:38:47;4.32;;;1.55;;
18931;SDS011;9598;50.954;3.112;2024-01-15T08:43:51;7.57;;;1.73;;
18931;SDS011;9598;50.954;3.112;2024-01-15T08:48:53;3.22;;;1.70;;
18931;SDS011;9598;50.954;3.112;2024-01-15T08:53:55;3.95;;;1.73;;
18931;SDS011;9598;50.954;3.112;2024-01-15T08:58:59;5.38;;;1.98;;
18931;SDS011;9598;50.954;3.112;2024-01-15T09:04:02;1.45;;;1.23;;
18931;SDS011;9598;50.954;3.112;2024-01-15T09:09:04;5.22;;;1.70;;
18931;SDS011;9598;50.954;3.112;2024-01-15T09:14:08;3.90;;;1.50;;
18931;SDS011;9598;50.954;3.112;2024-01-15T09:19:10;3.72;;;1.80;;
18931;SDS011;9598;50.954;3.112;2024-01-15T09:24:12;5.57;;;1.60;;
18931;SDS011;9598;50.954;3.112;2024-01-15T09:29:15;3.03;;;1.20;;
18931;SDS011;9598;50.954;3.112;2024-01-15T09:34:18;4.88;;;2.05;;
18931;SDS011;9598;50.954;3.112;2024-01-15T09:39:20;4.72;;;1.90;;
18931;SDS011;9598;50.954;3.112;2024-01-15T09:44:25;4.47;;;1.70;;
18931;SDS011;9598;50.954;3.112;2024-01-15T09:49:28;4.45;;;2.10;;
18931;SDS011;9598;50.954;3.112;2024-01-15T09:54:30;5.38;;;1.95;;
18931;SDS011;9598;50.954;3.112;2024-01-15T09:59:33;6.38;;;2.08;;
18931;SDS011;9598;50.954;3.112;2024-01-15T10:04:37;5.75;;;2.20;;
18931;SDS011;9598;50.954;3.112;2024-01-15T10:09:39;4.40;;;2.10;;
18931;SDS011;9598;50.954;3.112;2024-01-15T10:14:43;5.15;;;1.73;;
18931;SDS011;9598;50.954;3.112;2024-01-15T10:19:45;2.05;;;1.35;;
18931;SDS011;9598;50.954;3.112;2024-01-15T10:24:48;4.43;;;2.00;;
18931;SDS011;9598;50.954;3.112;2024-01-15T10:29:51;2.35;;;1.67;;
18931;SDS011;9598;50.954;3.112;2024-01-15T10:34:54;5.00;;;1.45;;
18931;SDS011;9598;50.954;3.112;2024-01-15T10:39:56;4.53;;;1.67;;
18931;SDS011;9598;50.954;3.112;2024-01-15T10:45:00;2.67;;;1.70;;
18931;SDS011;9598;50.954;3.112;2024-01-15T10:50:03;2.97;;;1.27;;
18931;SDS011;9598;50.954;3.112;2024-01-15T10:55:07;5.70;;;1.60;;
18931;SDS011;9598;50.954;3.112;2024-01-15T11:00:12;4.30;;;1.67;;
18931;SDS011;9598;50.954;3.112;2024-01-15T11:05:15;2.67;;;1.40;;
18931;SDS011;9598;50.954;3.112;2024-01-15T11:15:56;5.78;;;2.65;;
18931;SDS011;9598;50.954;3.112;2024-01-15T11:26:36;4.32;;;2.00;;
18931;SDS011;9598;50.954;3.112;2024-01-15T11:31:59;5.70;;;1.88;;
18931;SDS011;9598;50.954;3.112;2024-01-15T11:37:05;5.18;;;1.75;;
18931;SDS011;9598;50.954;3.112;2024-01-15T11:42:07;4.68;;;1.52;;
18931;SDS011;9598;50.954;3.112;2024-01-15T11:47:11;7.63;;;1.77;;
18931;SDS011;9598;50.954;3.112;2024-01-15T11:52:14;4.03;;;1.83;;
18931;SDS011;9598;50.954;3.112;2024-01-15T11:57:22;4.47;;;1.27;;
18931;SDS011;9598;50.954;3.112;2024-01-15T12:02:33;3.80;;;1.60;;
18931;SDS011;9598;50.954;3.112;2024-01-15T12:07:35;5.50;;;1.85;;
18931;SDS011;9598;50.954;3.112;2024-01-15T12:12:46;12.93;;;4.20;;
18931;SDS011;9598;50.954;3.112;2024-01-15T12:17:57;7.82;;;2.15;;
18931;SDS011;9598;50.954;3.112;2024-01-15T12:23:01;7.18;;;2.20;;
18931;SDS011;9598;50.954;3.112;2024-01-15T12:28:04;5.15;;;1.83;;
18931;SDS011;9598;50.954;3.112;2024-01-15T12:33:08;6.28;;;1.88;;
18931;SDS011;9598;50.954;3.112;2024-01-15T12:38:10;8.52;;;2.35;;
18931;SDS011;9598;50.954;3.112;2024-01-15T12:43:12;8.10;;;2.30;;
18931;SDS011;9598;50.954;3.112;2024-01-15T12:48:16;7.80;;;2.28;;
18931;SDS011;9598;50.954;3.112;2024-01-15T12:53:18;9.65;;;2.20;;
18931;SDS011;9598;50.954;3.112;2024-01-15T12:58:20;7.20;;;2.33;;
18931;SDS011;9598;50.954;3.112;2024-01-15T13:03:25;9.07;;;2.58;;
18931;SDS011;9598;50.954;3.112;2024-01-15T13:08:27;5.00;;;1.95;;
18931;SDS011;9598;50.954;3.112;2024-01-15T13:13:30;4.55;;;1.88;;
18931;SDS011;9598;50.954;3.112;2024-01-15T13:18:36;8.57;;;2.67;;
18931;SDS011;9598;50.954;3.112;2024-01-15T13:23:38;6.07;;;1.65;;
18931;SDS011;9598;50.954;3.112;2024-01-15T13:28:40;8.95;;;3.40;;
18931;SDS011;9598;50.954;3.112;2024-01-15T13:33:44;3.85;;;1.73;;
18931;SDS011;9598;50.954;3.112;2024-01-15T13:38:46;4.93;;;1.80;;
18931;SDS011;9598;50.954;3.112;2024-01-15T13:43:49;4.82;;;1.58;;
18931;SDS011;9598;50.954;3.112;2024-01-15T13:48:54;5.00;;;1.92;;
18931;SDS011;9598;50.954;3.112;2024-01-15T13:53:56;4.75;;;1.67;;
18931;SDS011;9598;50.954;3.112;2024-01-15T13:58:58;8.50;;;2.22;;
18931;SDS011;9598;50.954;3.112;2024-01-15T14:04:02;6.38;;;2.00;;
18931;SDS011;9598;50.954;3.112;2024-01-15T14:09:04;8.13;;;2.33;;
18931;SDS011;9598;50.954;3.112;2024-01-15T14:14:09;4.45;;;1.77;;
18931;SDS011;9598;50.954;3.112;2024-01-15T14:19:13;6.80;;;2.20;;
18931;SDS011;9598;50.954;3.112;2024-01-15T14:24:15;6.00;;;2.08;;
18931;SDS011;9598;50.954;3.112;2024-01-15T14:29:17;4.95;;;2.20;;
18931;SDS011;9598;50.954;3.112;2024-01-15T14:34:24;8.27;;;2.58;;
18931;SDS011;9598;50.954;3.112;2024-01-15T14:39:26;10.02;;;2.55;;
18931;SDS011;9598;50.954;3.112;2024-01-15T14:44:28;7.38;;;2.10;;
18931;SDS011;9598;50.954;3.112;2024-01-15T14:49:32;14.18;;;2.47;;
18931;SDS011;9598;50.954;3.112;2024-01-15T14:54:35;11.98;;;2.83;;
18931;SDS011;9598;50.954;3.112;2024-01-15T14:59:39;6.45;;;2.03;;
18931;SDS011;9598;50.954;3.112;2024-01-15T15:04:42;4.63;;;2.15;;
18931;SDS011;9598;50.954;3.112;2024-01-15T15:09:44;8.00;;;2.35;;
18931;SDS011;9598;50.954;3.112;2024-01-15T15:14:47;5.20;;;2.10;;
18931;SDS011;9598;50.954;3.112;2024-01-15T15:19:50;5.15;;;1.73;;
18931;SDS011;9598;50.954;3.112;2024-01-15T15:24:53;4.10;;;1.90;;
18931;SDS011;9598;50.954;3.112;2024-01-15T15:29:56;8.27;;;1.95;;
18931;SDS011;9598;50.954;3.112;2024-01-15T15:34:59;5.05;;;2.08;;
18931;SDS011;9598;50.954;3.112;2024-01-15T15:40:01;5.95;;;2.30;;
18931;SDS011;9598;50.954;3.112;2024-01-15T15:45:05;7.63;;;2.58;;
18931;SDS011;9598;50.954;3.112;2024-01-15T15:50:09;5.80;;;2.47;;
18931;SDS011;9598;50.954;3.112;2024-01-15T15:55:11;7.25;;;2.63;;
18931;SDS011;9598;50.954;3.112;2024-01-15T16:00:13;7.22;;;2.60;;
18931;SDS011;9598;50.954;3.112;2024-01-15T16:05:17;6.68;;;2.33;;
18931;SDS011;9598;50.954;3.112;2024-01-15T16:10:19;4.80;;;2.00;;
18931;SDS011;9598;50.954;3.112;2024-01-15T16:15:22;5.10;;;2.28;;
18931;SDS011;9598;50.954;3.112;2024-01-15T16:20:26;4.63;;;2.28;;
18931;SDS011;9598;50.954;3.112;2024-01-15T16:25:28;7.50;;;2.35;;
18931;SDS011;9598;50.954;3.112;2024-01-15T16:30:30;6.15;;;2.35;;
18931;SDS011;9598;50.954;3.112;2024-01-15T16:35:34;5.13;;;2.65;;
18931;SDS011;9598;50.954;3.112;2024-01-15T16:40:36;8.55;;;4.32;;
18931;SDS011;9598;50.954;3.112;2024-01-15T16:45:39;6.70;;;3.03;;
18931;SDS011;9598;50.954;3.112;2024-01-15T16:50:42;5.72;;;2.83;;
18931;SDS011;9598;50.954;3.112;2024-01-15T16:55:44;7.65;;;3.78;;
18931;SDS011;9598;50.954;3.112;2024-01-15T17:00:46;7.88;;;3.00;;
18931;SDS011;9598;50.954;3.112;2024-01-15T17:05:50;8.77;;;3.97;;
18931;SDS011;9598;50.954;3.112;2024-01-15T17:10:52;5.60;;;3.40;;
18931;SDS011;9598;50.954;3.112;2024-01-15T17:15:54;5.70;;;2.70;;
18931;SDS011;9598;50.954;3.112;2024-01-15T17:20:57;5.85;;;2.83;;
18931;SDS011;9598;50.954;3.112;2024-01-15T17:26:00;6.53;;;2.60;;
18931;SDS011;9598;50.954;3.112;2024-01-15T17:31:03;5.82;;;2.35;;
18931;SDS011;9598;50.954;3.112;2024-01-15T17:36:07;6.68;;;2.67;;
18931;SDS011;9598;50.954;3.112;2024-01-15T17:41:10;5.47;;;2.97;;
18931;SDS011;9598;50.954;3.112;2024-01-15T17:46:12;7.65;;;2.60;;
18931;SDS011;9598;50.954;3.112;2024-01-15T17:51:17;7.57;;;3.75;;
18931;SDS011;9598;50.954;3.112;2024-01-15T17:56:19;6.38;;;3.75;;
18931;SDS011;9598;50.954;3.112;2024-01-15T18:01:22;8.50;;;3.70;;
18931;SDS011;9598;50.954;3.112;2024-01-15T18:06:25;8.45;;;3.45;;
18931;SDS011;9598;50.954;3.112;2024-01-15T18:11:28;4.90;;;2.85;;
18931;SDS011;9598;50.954;3.112;2024-01-15T18:16:30;9.68;;;2.60;;
18931;SDS011;9598;50.954;3.112;2024-01-15T18:21:34;8.75;;;3.20;;
18931;SDS011;9598;50.954;3.112;2024-01-15T18:26:36;6.85;;;2.90;;
18931;SDS011;9598;50.954;3.112;2024-01-15T18:31:40;6.88;;;3.78;;
18931;SDS011;9598;50.954;3.112;2024-01-15T18:36:43;9.63;;;5.10;;
18931;SDS011;9598;50.954;3.112;2024-01-15T18:41:47;10.77;;;4.20;;
18931;SDS011;9598;50.954;3.112;2024-01-15T18:46:49;4.55;;;3.35;;
18931;SDS011;9598;50.954;3.112;2024-01-15T18:51:52;10.38;;;4.30;;
18931;SDS011;9598;50.954;3.112;2024-01-15T18:56:56;7.80;;;3.15;;
18931;SDS011;9598;50.954;3.112;2024-01-15T19:01:58;8.68;;;3.72;;
18931;SDS011;9598;50.954;3.112;2024-01-15T19:07:02;7.28;;;3.92;;
18931;SDS011;9598;50.954;3.112;2024-01-15T19:12:07;9.50;;;3.50;;
18931;SDS011;9598;50.954;3.112;2024-01-15T19:17:09;6.82;;;3.90;;
18931;SDS011;9598;50.954;3.112;2024-01-15T19:22:12;6.80;;;3.80;;
18931;SDS011;9598;50.954;3.112;2024-01-15T19:27:15;6.28;;;3.60;;
18931;SDS011;9598;50.954;3.112;2024-01-15T19:32:17;6.35;;;3.08;;
18931;SDS011;9598;50.954;3.112;2024-01-15T19:37:20;11.07;;;4.13;;
18931;SDS011;9598;50.954;3.112;2024-01-15T19:42:22;8.15;;;4.47;;
18931;SDS011;9598;50.954;3.112;2024-01-15T19:47:24;9.52;;;3.88;;
18931;SDS011;9598;50.954;3.112;2024-01-15T19:52:29;5.03;;;3.38;;
18931;SDS011;9598;50.954;3.112;2024-01-15T19:57:31;5.70;;;3.65;;
18931;SDS011;9598;50.954;3.112;2024-01-15T20:02:33;6.82;;;3.80;;
18931;SDS011;9598;50.954;3.112;2024-01-15T20:07:37;11.18;;;3.63;;
18931;SDS011;9598;50.954;3.112;2024-01-15T20:12:39;8.48;;;3.60;;
18931;SDS011;9598;50.954;3.112;2024-01-15T20:17:41;5.80;;;3.08;;
18931;SDS011;9598;50.954;3.112;2024-01-15T20:22:45;8.68;;;3.17;;
18931;SDS011;9598;50.954;3.112;2024-01-15T20:27:47;6.53;;;3.47;;
18931;SDS011;9598;50.954;3.112;2024-01-15T20:32:49;7.95;;;3.15;;
18931;SDS011;9598;50.954;3.112;2024-01-15T20:37:52;6.80;;;3.25;;
18931;SDS011;9598;50.954;3.112;2024-01-15T20:42:55;6.93;;;3.80;;
18931;SDS011;9598;50.954;3.112;2024-01-15T20:47:57;3.60;;;2.80;;
18931;SDS011;9598;50.954;3.112;2024-01-15T20:53:01;5.97;;;3.13;;
18931;SDS011;9598;50.954;3.112;2024-01-15T20:58:06;5.45;;;3.40;;
18931;SDS011;9598;50.954;3.112;2024-01-15T21:03:09;4.35;;;2.50;;
18931;SDS011;9598;50.954;3.112;2024-01-15T21:08:12;7.28;;;2.70;;
18931;SDS011;9598;50.954;3.112;2024-01-15T21:13:15;3.90;;;2.33;;
18931;SDS011;9598;50.954;3.112;2024-01-15T21:18:17;5.85;;;2.72;;
18931;SDS011;9598;50.954;3.112;2024-01-15T21:23:21;12.35;;;9.13;;
18931;SDS011;9598;50.954;3.112;2024-01-15T21:28:23;9.18;;;3.38;;
18931;SDS011;9598;50.954;3.112;2024-01-15T21:33:25;9.38;;;3.90;;
18931;SDS011;9598;50.954;3.112;2024-01-15T21:38:31;5.05;;;3.08;;
18931;SDS011;9598;50.954;3.112;2024-01-15T21:43:33;6.68;;;4.72;;
18931;SDS011;9598;50.954;3.112;2024-01-15T21:48:35;8.80;;;3.40;;
18931;SDS011;9598;50.954;3.112;2024-01-15T21:53:38;9.00;;;2.95;;
18931;SDS011;9598;50.954;3.112;2024-01-15T21:58:40;6.88;;;3.33;;
18931;SDS011;9598;50.954;3.112;2024-01-15T22:03:43;9.18;;;3.97;;
18931;SDS011;9598;50.954;3.112;2024-01-15T22:08:46;5.72;;;3.72;;
18931;SDS011;9598;50.954;3.112;2024-01-15T22:13:48;11.27;;;3.42;;
18931;SDS011;9598;50.954;3.112;2024-01-15T22:18:51;7.65;;;3.35;;
18931;SDS011;9598;50.954;3.112;2024-01-15T22:23:54;9.68;;;3.25;;
18931;SDS011;9598;50.954;3.112;2024-01-15T22:28:56;6.25;;;3.42;;
18931;SDS011;9598;50.954;3.112;2024-01-15T22:33:58;11.73;;;4.18;;
18931;SDS011;9598;50.954;3.112;2024-01-15T22:39:02;8.27;;;4.03;;
18931;SDS011;9598;50.954;3.112;2024-01-15T22:44:04;4.95;;;3.25;;
18931;SDS011;9598;50.954;3.112;2024-01-15T22:49:07;8.05;;;3.42;;
18931;SDS011;9598;50.954;3.112;2024-01-15T22:54:11;7.72;;;3.70;;
18931;SDS011;9598;50.954;3.112;2024-01-15T22:59:13;5.75;;;3.30;;
18931;SDS011;9598;50.954;3.112;2024-01-15T23:04:18;8.57;;;3.50;;
18931;SDS011;9598;50.954;3.112;2024-01-15T23:09:22;7.00;;;3.00;;
18931;SDS011;9598;50.954;3.112;2024-01-15T23:14:24;7.80;;;3.75;;
18931;SDS011;9598;50.954;3.112;2024-01-15T23:19:26;6.25;;;2.80;;
18931;SDS011;9598;50.954;3.112;2024-01-15T23:24:30;5.68;;;2.60;;
18931;SDS011;9598;50.954;3.112;2024-01-15T23:29:32;8.35;;;3.13;;
18931;SDS011;9598;50.954;3.112;2024-01-15T23:34:34;6.75;;;3.40;;
18931;SDS011;9598;50.954;3.112;2024-01-15T23:39:38;7.78;;;3.70;;
18931;SDS011;9598;50.954;3.112;2024-01-15T23:44:40;4.95;;;2.83;;
18931;SDS011;9598;50.954;3.112;2024-01-15T23:49:42;4.93;;;2.40;;
18931;SDS011;9598;50.954;3.112;2024-01-15T23:54:45;9.52;;;3.42;;
18931;SDS011;9598;50.954;3.112;2024-01-15T23:59:47;4.38;;;3.60;;
